East Ryegate, Vermont
Current Conditions -  °F | °C
As of 11:28 AM on Friday 24 Oct 2014 (Local Time) from KMPV Reporting Station
Overcast Overcast  
Wind Chill: 35°   Ceiling: 500
Heat Index: 41°   Visibility: 10mi
Dew Point: 40°   Wind: 9mph
Humidity: 96%   Direction: 330°NNW
Pressure: 29.84"   Gusts: NA
Location:  44.2°N, 72.06°W
Report Text: KMPV 241528Z AUTO 33008KT 10SM BKN005 OVC018 05/04 A2984 RMK AO2 CIG 003V009 T00500044 $
Loading
Personal Weather Stations






























Interactive Weather Map
Tropical Storm Tracking
New forecast layout! Learn more

10-Day Weather Forecast

Advertisements
Track Severe Weather on mobile